Time;durP1;ratioP1;P1;durP2;ratioP2;P2;SDS_P1;SDS_P2;PMS_P1;PMS_P2;Temp;Humidity;BMP_temperature;BMP_pressure;BME280_temperature;BME280_humidity;BME280_pressure;Samples;Min_cycle;Max_cycle;Signal;HPM_P1;HPM_P2
2022/11/21 00:00:45;;;;;;;28.92;18.35;;;2.20;99.90;;;;;;5109550;27;20054;-67
2022/11/21 00:03:12;;;;;;;29.13;16.73;;;2.20;99.90;;;;;;5111546;27;20518;-67
2022/11/21 00:05:43;;;;;;;27.35;17.73;;;2.20;99.90;;;;;;5109087;27;20118;-66
2022/11/21 00:08:10;;;;;;;28.00;16.50;;;2.30;99.90;;;;;;5109713;27;20031;-66
2022/11/21 00:10:37;;;;;;;27.48;17.67;;;2.30;99.90;;;;;;5115203;27;20122;-68
2022/11/21 00:13:03;;;;;;;27.35;17.35;;;2.30;99.90;;;;;;5112497;27;20054;-66
2022/11/21 00:15:29;;;;;;;27.92;17.17;;;2.30;99.90;;;;;;5113095;27;20036;-68
2022/11/21 00:17:55;;;;;;;25.02;15.98;;;2.30;99.90;;;;;;5111286;27;20423;-65
2022/11/21 00:20:21;;;;;;;26.30;16.40;;;2.20;99.90;;;;;;5110952;27;20129;-67
2022/11/21 00:22:48;;;;;;;25.38;16.48;;;2.20;99.90;;;;;;5111389;27;20147;-68
2022/11/21 00:25:13;;;;;;;26.58;16.63;;;2.20;99.90;;;;;;5112123;27;20505;-67
2022/11/21 00:27:39;;;;;;;26.90;16.80;;;2.20;99.90;;;;;;5110780;27;20041;-67
2022/11/21 00:30:07;;;;;;;23.75;16.05;;;2.20;99.90;;;;;;5106225;27;20046;-67
2022/11/21 00:32:33;;;;;;;27.52;16.98;;;2.20;99.90;;;;;;5106231;27;20151;-67
2022/11/21 00:34:58;;;;;;;26.90;18.05;;;2.20;99.90;;;;;;5114130;27;20043;-67
2022/11/21 00:37:24;;;;;;;28.02;16.48;;;2.20;99.90;;;;;;5109861;27;20039;-67
2022/11/21 00:39:50;;;;;;;24.63;16.92;;;2.20;99.90;;;;;;5112583;27;20051;-66
2022/11/21 00:42:16;;;;;;;26.50;16.67;;;2.20;99.90;;;;;;5111921;27;20402;-67
2022/11/21 00:44:41;;;;;;;25.83;16.48;;;2.20;99.90;;;;;;5112063;27;20039;-66
2022/11/21 00:47:07;;;;;;;26.77;16.83;;;2.20;99.90;;;;;;5093419;27;20028;-68
2022/11/21 00:49:32;;;;;;;26.17;16.83;;;2.20;99.90;;;;;;5131239;27;20113;-67
2022/11/21 00:51:58;;;;;;;23.65;14.90;;;2.20;99.90;;;;;;5113173;27;20110;-66
2022/11/21 00:54:23;;;;;;;25.17;16.13;;;2.20;99.90;;;;;;5112632;27;20047;-67
2022/11/21 00:56:49;;;;;;;25.10;16.15;;;2.20;99.90;;;;;;5109471;27;20474;-66
2022/11/21 00:59:15;;;;;;;25.10;16.38;;;2.20;99.90;;;;;;5111811;27;20084;-67
2022/11/21 01:01:40;;;;;;;26.88;16.58;;;2.20;99.90;;;;;;5128791;27;20118;-68
2022/11/21 01:04:06;;;;;;;23.20;16.10;;;2.20;99.90;;;;;;5107757;27;20046;-67
2022/11/21 01:06:32;;;;;;;24.52;15.88;;;2.20;99.90;;;;;;5107789;27;20039;-67
2022/11/21 01:08:57;;;;;;;25.55;16.45;;;2.20;99.90;;;;;;5114439;27;20036;-68
2022/11/21 01:11:23;;;;;;;24.70;16.50;;;2.20;99.90;;;;;;5126797;27;20062;-68
2022/11/21 01:13:49;;;;;;;25.23;16.17;;;2.20;99.90;;;;;;5108692;27;20524;-67
2022/11/21 01:16:17;;;;;;;28.08;16.40;;;2.20;99.90;;;;;;5093532;27;20055;-66
2022/11/21 01:18:43;;;;;;;26.58;16.63;;;2.10;99.90;;;;;;5106211;27;20035;-67
2022/11/21 01:21:30;;;;;;;25.08;16.63;;;2.10;99.90;;;;;;5094517;27;20035;-68
2022/11/21 01:23:58;;;;;;;24.42;16.58;;;2.10;99.90;;;;;;5087504;27;20043;-67
2022/11/21 01:26:26;;;;;;;25.23;16.48;;;2.10;99.90;;;;;;5110124;27;20488;-66
2022/11/21 01:28:52;;;;;;;24.10;16.13;;;2.10;99.90;;;;;;5110107;27;20041;-67
2022/11/21 01:31:23;;;;;;;26.35;16.60;;;2.10;99.90;;;;;;5107737;27;20053;-65
2022/11/21 01:33:49;;;;;;;25.50;16.63;;;2.10;99.90;;;;;;5107940;27;20035;-67
2022/11/21 01:36:20;;;;;;;24.83;16.23;;;2.10;99.90;;;;;;5108475;28;20072;-65
2022/11/21 01:38:48;;;;;;;25.08;16.70;;;2.10;99.90;;;;;;5122709;27;20043;-67
2022/11/21 01:41:18;;;;;;;23.73;15.45;;;2.10;99.90;;;;;;5113321;27;20047;-68
2022/11/21 01:43:43;;;;;;;25.27;15.07;;;2.10;99.90;;;;;;5109123;27;20047;-67
2022/11/21 01:46:12;;;;;;;22.35;15.25;;;2.10;99.90;;;;;;5112260;27;20051;-67
2022/11/21 01:49:04;;;;;;;25.05;16.25;;;2.10;99.90;;;;;;5107665;27;20035;-68
2022/11/21 01:51:41;;;;;;;26.23;17.00;;;2.10;99.90;;;;;;5110071;27;20770;-66
2022/11/21 01:54:16;;;;;;;21.85;15.27;;;2.00;99.90;;;;;;5106238;27;20440;-67
2022/11/21 01:56:48;;;;;;;24.70;16.08;;;2.10;99.90;;;;;;5110725;27;20057;-66
2022/11/21 01:59:23;;;;;;;23.20;15.57;;;2.10;99.90;;;;;;5107998;27;20584;-68
2022/11/21 02:01:52;;;;;;;24.85;16.58;;;2.10;99.90;;;;;;5109698;27;20071;-67
2022/11/21 02:04:18;;;;;;;24.90;16.13;;;2.10;99.90;;;;;;5111079;28;20047;-66
2022/11/21 02:06:44;;;;;;;23.85;16.13;;;2.10;99.90;;;;;;5108448;28;20116;-67
2022/11/21 02:09:10;;;;;;;24.73;16.33;;;2.10;99.90;;;;;;5110852;28;20654;-68
2022/11/21 02:11:48;;;;;;;27.63;16.35;;;2.10;99.90;;;;;;5111260;27;20788;-67
2022/11/21 02:14:14;;;;;;;26.90;16.90;;;2.10;99.90;;;;;;5109768;28;20054;-67
2022/11/21 02:16:39;;;;;;;24.45;16.08;;;2.10;99.90;;;;;;5110229;28;20028;-68
2022/11/21 02:19:14;;;;;;;24.75;15.77;;;2.10;99.90;;;;;;5109188;28;20391;-67
2022/11/21 02:21:59;;;;;;;27.20;16.55;;;2.10;99.90;;;;;;5111992;28;20046;-67
2022/11/21 02:24:59;;;;;;;24.77;16.23;;;2.10;99.90;;;;;;5107880;28;20047;-66
2022/11/21 02:27:25;;;;;;;25.70;15.98;;;2.00;99.90;;;;;;5008879;28;20053;-67
2022/11/21 02:29:50;;;;;;;24.20;15.95;;;2.00;99.90;;;;;;5007986;28;20037;-66
2022/11/21 02:32:21;;;;;;;24.15;16.45;;;2.00;99.90;;;;;;5005707;28;20045;-67
2022/11/21 02:34:46;;;;;;;28.27;17.42;;;2.00;99.90;;;;;;5007343;28;20092;-67
2022/11/21 02:37:13;;;;;;;25.80;17.00;;;2.00;99.90;;;;;;5008833;28;20435;-67
2022/11/21 02:39:39;;;;;;;24.73;16.58;;;2.00;99.90;;;;;;5002329;28;20041;-66
2022/11/21 02:42:13;;;;;;;25.70;15.90;;;2.00;99.90;;;;;;5020581;28;20045;-67
2022/11/21 02:45:20;;;;;;;24.40;16.92;;;2.00;99.90;;;;;;5007336;28;20408;-66
2022/11/21 02:47:49;;;;;;;25.17;16.15;;;2.00;99.90;;;;;;4948823;28;20125;-66
2022/11/21 02:50:33;;;;;;;26.00;16.08;;;2.00;99.90;;;;;;4951981;28;20125;-67
2022/11/21 02:52:59;;;;;;;24.77;16.40;;;2.00;99.90;;;;;;4947442;28;20055;-67
2022/11/21 02:55:26;;;;;;;24.77;16.20;;;2.00;99.90;;;;;;4935728;28;20506;-64
2022/11/21 02:57:52;;;;;;;25.20;16.80;;;2.00;99.90;;;;;;4950562;28;20078;-66
2022/11/21 03:00:18;;;;;;;26.05;16.50;;;2.10;99.90;;;;;;4949905;28;20522;-66
2022/11/21 03:02:44;;;;;;;26.67;16.10;;;2.10;99.90;;;;;;4948442;28;20140;-66
2022/11/21 03:05:12;;;;;;;25.40;16.65;;;2.00;99.90;;;;;;5024678;28;20077;-66
2022/11/21 03:07:38;;;;;;;26.73;16.58;;;2.00;99.90;;;;;;5040480;28;20458;-66
2022/11/21 03:10:04;;;;;;;24.33;15.68;;;2.00;99.90;;;;;;5029291;28;20084;-67
2022/11/21 03:12:30;;;;;;;23.90;16.05;;;1.90;99.90;;;;;;5028103;28;20496;-68
2022/11/21 03:14:56;;;;;;;23.05;15.23;;;1.90;99.90;;;;;;5030420;28;20043;-66
2022/11/21 03:17:22;;;;;;;22.95;15.05;;;1.90;99.90;;;;;;5030014;28;20467;-67
2022/11/21 03:19:47;;;;;;;24.58;15.40;;;1.90;99.90;;;;;;5112148;28;20043;-66
2022/11/21 03:22:14;;;;;;;26.58;16.95;;;1.80;99.90;;;;;;5105315;28;20379;-67
2022/11/21 03:24:39;;;;;;;24.63;16.30;;;1.80;99.90;;;;;;5111301;28;20553;-67
2022/11/21 03:27:05;;;;;;;26.10;16.73;;;1.70;99.90;;;;;;5110348;27;20031;-68
2022/11/21 03:29:30;;;;;;;24.92;16.45;;;1.70;99.90;;;;;;5111258;27;20039;-64
2022/11/21 03:31:56;;;;;;;23.80;15.68;;;1.70;99.90;;;;;;5124617;27;20031;-66
2022/11/21 03:34:23;;;;;;;25.90;16.48;;;1.60;99.90;;;;;;5114214;27;20035;-66
2022/11/21 03:36:49;;;;;;;24.85;16.02;;;1.60;99.90;;;;;;5112682;27;20062;-66
2022/11/21 03:39:15;;;;;;;22.95;15.30;;;1.60;99.90;;;;;;5095201;27;20190;-66
2022/11/21 03:41:40;;;;;;;24.38;15.55;;;1.60;99.90;;;;;;5130205;27;20493;-67
2022/11/21 03:44:09;;;;;;;28.38;17.58;;;1.50;99.90;;;;;;5110921;27;20126;-65
2022/11/21 03:46:40;;;;;;;22.00;14.75;;;1.60;99.90;;;;;;5112436;27;20039;-68
2022/11/21 03:49:07;;;;;;;28.20;15.70;;;1.60;99.90;;;;;;5109876;27;20077;-67
2022/11/21 03:51:33;;;;;;;25.02;15.60;;;1.50;99.90;;;;;;5113428;27;20035;-65
2022/11/21 03:53:59;;;;;;;24.27;17.00;;;1.60;99.90;;;;;;5107996;27;20474;-67
2022/11/21 03:56:25;;;;;;;24.08;15.80;;;1.50;99.90;;;;;;5112967;27;20042;-67
2022/11/21 03:58:51;;;;;;;24.35;16.33;;;1.50;99.90;;;;;;5110960;28;20117;-65
2022/11/21 04:01:17;;;;;;;25.25;15.70;;;1.50;99.90;;;;;;5097899;28;20047;-68
2022/11/21 04:03:43;;;;;;;23.13;15.35;;;1.50;99.90;;;;;;5107669;28;20390;-68
2022/11/21 04:06:11;;;;;;;22.83;15.80;;;1.50;99.90;;;;;;5104467;28;20043;-67
2022/11/21 04:08:37;;;;;;;22.38;14.65;;;1.40;99.90;;;;;;5110519;28;20043;-66
2022/11/21 04:11:03;;;;;;;21.92;14.07;;;1.40;99.90;;;;;;5080499;28;20502;-68
2022/11/21 04:13:29;;;;;;;20.50;14.35;;;1.40;99.90;;;;;;5100816;28;20032;-66
2022/11/21 04:15:54;;;;;;;23.75;15.30;;;1.40;99.90;;;;;;5110335;28;20134;-67
2022/11/21 04:18:20;;;;;;;23.35;15.52;;;1.30;99.90;;;;;;5107740;28;20046;-68
2022/11/21 04:20:46;;;;;;;23.83;15.35;;;1.20;99.90;;;;;;5103064;28;20055;-67
2022/11/21 04:23:12;;;;;;;23.38;15.55;;;1.20;99.90;;;;;;5110244;28;20035;-67
2022/11/21 04:25:38;;;;;;;23.88;14.98;;;1.20;99.90;;;;;;5107933;28;20056;-67
2022/11/21 04:28:04;;;;;;;23.50;14.80;;;1.10;99.90;;;;;;5090650;28;20042;-68
2022/11/21 04:30:32;;;;;;;24.88;15.95;;;1.10;99.90;;;;;;5108952;28;20037;-67
2022/11/21 04:32:57;;;;;;;24.73;15.25;;;1.10;99.90;;;;;;5104514;27;20122;-68
2022/11/21 04:35:24;;;;;;;24.42;15.93;;;1.00;99.90;;;;;;5109664;28;20130;-68
2022/11/21 04:37:50;;;;;;;21.60;14.32;;;1.00;99.90;;;;;;5104347;28;20035;-64
2022/11/21 04:40:16;;;;;;;22.73;14.88;;;0.90;99.90;;;;;;5103709;27;20083;-68
2022/11/21 04:42:44;;;;;;;24.38;15.65;;;0.80;99.90;;;;;;5104344;28;20496;-66
2022/11/21 04:45:10;;;;;;;26.65;16.17;;;0.80;99.90;;;;;;5106901;28;20042;-67
2022/11/21 04:47:40;;;;;;;25.95;16.15;;;0.80;99.90;;;;;;5107820;28;21624;-65
2022/11/21 04:50:07;;;;;;;25.30;16.25;;;0.70;99.90;;;;;;5087559;28;20047;-66
2022/11/21 04:52:34;;;;;;;22.50;15.05;;;0.70;99.90;;;;;;5102732;28;20035;-67
2022/11/21 04:55:00;;;;;;;24.45;15.93;;;0.70;99.90;;;;;;5102474;28;20471;-67
2022/11/21 04:57:30;;;;;;;22.17;14.77;;;0.70;99.90;;;;;;5109688;28;20048;-67
2022/11/21 04:59:56;;;;;;;24.40;15.90;;;0.70;99.90;;;;;;5107253;28;20062;-66
2022/11/21 05:02:22;;;;;;;23.80;15.75;;;0.70;99.90;;;;;;5097634;28;20050;-66
2022/11/21 05:04:48;;;;;;;23.55;15.00;;;0.70;99.90;;;;;;5105779;28;20043;-67
2022/11/21 05:07:14;;;;;;;23.92;15.10;;;0.70;99.90;;;;;;5109432;28;20032;-67
2022/11/21 05:09:39;;;;;;;24.35;15.85;;;0.70;99.90;;;;;;5106103;28;20036;-65
2022/11/21 05:14:50;;;;;;;24.65;14.68;;;0.60;99.90;;;;;;5099948;27;20045;-65
2022/11/21 05:17:15;;;;;;;23.55;14.93;;;0.60;99.90;;;;;;5105799;28;20131;-67
2022/11/21 05:19:41;;;;;;;24.35;15.23;;;0.60;99.90;;;;;;5108391;28;20040;-65
2022/11/21 05:22:06;;;;;;;23.02;14.95;;;0.60;99.90;;;;;;5106361;27;20043;-67
2022/11/21 05:24:32;;;;;;;25.23;15.68;;;0.60;99.90;;;;;;5096341;27;20438;-66
2022/11/21 05:26:58;;;;;;;24.70;15.38;;;0.60;99.90;;;;;;5106180;28;20412;-66
2022/11/21 05:29:23;;;;;;;24.02;16.10;;;0.70;99.90;;;;;;5088758;28;20105;-65
2022/11/21 05:31:49;;;;;;;22.33;15.45;;;0.70;99.90;;;;;;5103626;28;20028;-67
2022/11/21 05:34:14;;;;;;;24.88;15.93;;;0.70;99.90;;;;;;5107787;28;20085;-67
2022/11/21 05:36:40;;;;;;;23.50;14.93;;;0.60;99.90;;;;;;5095528;28;20044;-67
2022/11/21 05:39:06;;;;;;;21.42;14.05;;;0.60;99.90;;;;;;5104936;28;20055;-66
2022/11/21 05:41:31;;;;;;;24.02;14.90;;;0.50;99.90;;;;;;5103634;28;20039;-65
2022/11/21 05:43:57;;;;;;;23.60;14.80;;;0.60;99.90;;;;;;5104911;28;20074;-66
2022/11/21 05:46:24;;;;;;;26.23;16.67;;;0.50;99.90;;;;;;5083960;28;20055;-67
2022/11/21 05:48:51;;;;;;;25.42;16.27;;;0.40;99.90;;;;;;5103427;28;20036;-66
2022/11/21 05:51:18;;;;;;;27.52;18.02;;;0.50;99.90;;;;;;5103919;28;20119;-66
2022/11/21 05:53:45;;;;;;;27.83;16.90;;;0.40;99.90;;;;;;5105925;28;20031;-66
2022/11/21 05:56:13;;;;;;;26.65;17.17;;;0.40;99.90;;;;;;5084993;28;20129;-68
2022/11/21 05:58:39;;;;;;;28.00;17.88;;;0.50;99.90;;;;;;5117775;27;20043;-67
2022/11/21 06:01:06;;;;;;;28.48;17.92;;;0.50;99.90;;;;;;5087552;27;20035;-66
2022/11/21 06:03:35;;;;;;;28.58;18.25;;;0.50;99.90;;;;;;5111317;27;20114;-67
2022/11/21 06:06:07;;;;;;;25.70;16.83;;;0.50;99.90;;;;;;5109382;27;20042;-67
2022/11/21 06:08:45;;;;;;;27.27;16.95;;;0.50;99.90;;;;;;5111471;28;20466;-65
2022/11/21 06:11:13;;;;;;;25.45;16.35;;;0.50;99.90;;;;;;5111804;27;20031;-65
2022/11/21 06:13:39;;;;;;;27.98;16.83;;;0.50;99.90;;;;;;5130690;27;20031;-66
2022/11/21 06:16:08;;;;;;;28.85;17.95;;;0.50;99.90;;;;;;5111626;28;20415;-67
2022/11/21 06:18:36;;;;;;;25.02;16.40;;;0.50;99.90;;;;;;5109802;28;20169;-65
2022/11/21 06:21:04;;;;;;;24.77;17.08;;;0.50;99.90;;;;;;5107770;28;20069;-65
2022/11/21 06:23:30;;;;;;;25.48;16.67;;;0.40;99.90;;;;;;5111935;28;20043;-66
2022/11/21 06:26:02;;;;;;;24.50;16.50;;;0.40;99.90;;;;;;5109814;28;20172;-65
2022/11/21 06:28:37;;;;;;;26.60;16.40;;;0.40;99.90;;;;;;5105152;28;20042;-68
2022/11/21 06:31:10;;;;;;;27.02;16.45;;;0.40;99.90;;;;;;5109572;28;20043;-67
2022/11/21 06:33:37;;;;;;;26.23;16.15;;;0.40;99.90;;;;;;5110123;28;20046;-66
2022/11/21 06:36:12;;;;;;;24.48;16.00;;;0.40;99.90;;;;;;5108157;28;20680;-66
2022/11/21 06:38:38;;;;;;;26.10;16.48;;;0.30;99.90;;;;;;5107690;28;20035;-65
2022/11/21 06:41:24;;;;;;;24.35;15.93;;;0.30;99.90;;;;;;5111844;28;20046;-67
2022/11/21 06:43:50;;;;;;;26.20;16.88;;;0.30;99.90;;;;;;5102140;28;20043;-66
2022/11/21 06:46:16;;;;;;;26.50;16.45;;;0.30;99.90;;;;;;5108041;28;20055;-65
2022/11/21 06:48:42;;;;;;;27.60;17.27;;;0.30;99.90;;;;;;5106045;28;20527;-67
2022/11/21 06:51:20;;;;;;;27.42;17.88;;;0.30;99.90;;;;;;5108369;28;20549;-66
2022/11/21 06:53:47;;;;;;;25.10;16.88;;;0.30;99.90;;;;;;5106850;28;20043;-65
2022/11/21 06:56:14;;;;;;;25.42;16.50;;;0.30;99.90;;;;;;5106544;28;20051;-67
2022/11/21 06:58:39;;;;;;;26.05;16.75;;;0.20;99.90;;;;;;5104102;28;20055;-66
2022/11/21 07:01:07;;;;;;;26.52;16.33;;;0.20;99.90;;;;;;5085576;28;20058;-66
2022/11/21 07:03:34;;;;;;;26.58;16.35;;;0.10;99.90;;;;;;5127223;27;20154;-68
2022/11/21 07:06:00;;;;;;;27.13;16.42;;;0.00;99.90;;;;;;5131678;27;20385;-67
2022/11/21 07:08:32;;;;;;;26.40;17.27;;;0.00;99.90;;;;;;5111926;27;20043;-66
2022/11/21 07:11:06;;;;;;;29.30;17.83;;;0.00;99.90;;;;;;5114523;27;20110;-68
2022/11/21 07:13:32;;;;;;;28.25;18.70;;;0.00;99.90;;;;;;5113238;27;20073;-67
2022/11/21 07:16:09;;;;;;;32.90;19.83;;;0.00;99.90;;;;;;5104838;27;20482;-67
2022/11/21 07:18:35;;;;;;;30.85;19.75;;;0.00;99.90;;;;;;5109363;27;20486;-67
2022/11/21 07:21:03;;;;;;;32.15;19.90;;;0.00;99.90;;;;;;5087698;27;20051;-66
2022/11/21 07:23:30;;;;;;;31.88;19.25;;;-0.10;99.90;;;;;;5083870;27;20046;-67
2022/11/21 07:25:59;;;;;;;34.60;21.02;;;-0.10;99.90;;;;;;5109656;27;20062;-66
2022/11/21 07:28:25;;;;;;;32.63;19.48;;;-0.10;99.90;;;;;;5105938;27;20043;-68
2022/11/21 07:30:54;;;;;;;35.30;20.73;;;-0.10;99.90;;;;;;5106650;27;20080;-66
2022/11/21 07:33:20;;;;;;;34.95;20.90;;;0.00;99.90;;;;;;5109949;27;20036;-67
2022/11/21 07:35:45;;;;;;;35.15;20.92;;;-0.10;99.90;;;;;;5115429;27;20091;-66
2022/11/21 07:38:11;;;;;;;36.50;20.63;;;0.00;99.90;;;;;;5113897;27;20053;-67
2022/11/21 07:40:37;;;;;;;33.95;19.92;;;-0.10;99.90;;;;;;5098280;27;20043;-67
2022/11/21 07:43:04;;;;;;;46.25;21.38;;;0.00;99.90;;;;;;5115558;27;20485;-66
2022/11/21 07:45:30;;;;;;;34.72;18.98;;;0.00;99.90;;;;;;5098461;27;20043;-64
2022/11/21 07:48:06;;;;;;;34.85;19.02;;;-0.10;99.90;;;;;;5097884;27;20082;-68
2022/11/21 07:50:32;;;;;;;36.10;16.55;;;-0.10;99.90;;;;;;5092397;27;20509;-67
2022/11/21 07:52:59;;;;;;;47.20;17.13;;;-0.10;99.90;;;;;;5113364;27;20440;-68
2022/11/21 07:55:29;;;;;;;57.22;15.90;;;-0.20;99.90;;;;;;5115874;27;20039;-67
2022/11/21 07:58:02;;;;;;;29.33;16.35;;;-0.10;99.90;;;;;;5115196;27;20129;-66
2022/11/21 08:00:29;;;;;;;29.17;17.33;;;-0.10;99.90;;;;;;5096697;27;20063;-68
2022/11/21 08:02:55;;;;;;;26.85;16.20;;;0.00;99.90;;;;;;5113809;27;20074;-65
2022/11/21 08:05:21;;;;;;;51.92;17.50;;;0.10;99.90;;;;;;5114054;27;20047;-67
2022/11/21 08:07:46;;;;;;;30.58;15.63;;;0.20;99.90;;;;;;5096466;27;20043;-67
2022/11/21 08:10:12;;;;;;;49.47;16.88;;;0.20;99.90;;;;;;5113611;27;20476;-68
2022/11/21 08:12:38;;;;;;;31.20;16.02;;;0.20;99.90;;;;;;5113680;27;20039;-67
2022/11/21 08:15:05;;;;;;;27.77;16.42;;;0.20;99.90;;;;;;5113169;27;20059;-68
2022/11/21 08:17:31;;;;;;;44.00;16.23;;;0.30;99.90;;;;;;5110833;27;20110;-65
2022/11/21 08:19:59;;;;;;;48.53;17.08;;;0.30;99.90;;;;;;5113259;27;20079;-67
2022/11/21 08:22:25;;;;;;;31.05;16.00;;;0.20;99.90;;;;;;5113387;27;20055;-67
2022/11/21 08:24:50;;;;;;;35.13;18.60;;;0.20;99.90;;;;;;5114945;27;20497;-66
2022/11/21 08:27:19;;;;;;;27.42;17.08;;;0.20;99.90;;;;;;5114572;27;20092;-67
2022/11/21 08:29:45;;;;;;;25.38;15.88;;;0.30;99.90;;;;;;5114791;27;20046;-67
2022/11/21 08:32:11;;;;;;;31.35;16.67;;;0.40;99.90;;;;;;5114213;27;20039;-65
2022/11/21 08:34:36;;;;;;;27.73;15.73;;;0.50;99.90;;;;;;5113827;27;20045;-66
2022/11/21 08:37:02;;;;;;;37.42;16.20;;;0.60;99.90;;;;;;5122165;27;20071;-66
2022/11/21 08:39:29;;;;;;;28.42;15.45;;;0.70;99.90;;;;;;5129147;27;20024;-68
2022/11/21 08:42:01;;;;;;;24.58;15.60;;;0.80;99.90;;;;;;5109844;27;20045;-67
2022/11/21 08:44:31;;;;;;;32.75;16.00;;;0.80;99.90;;;;;;5110293;27;20494;-68
2022/11/21 08:46:57;;;;;;;30.05;14.23;;;0.90;99.90;;;;;;5132322;27;20035;-66
2022/11/21 08:49:23;;;;;;;33.03;14.23;;;0.90;99.90;;;;;;5114151;27;20117;-66
2022/11/21 08:51:49;;;;;;;23.50;15.32;;;0.90;99.90;;;;;;5114209;27;20528;-67
2022/11/21 08:54:19;;;;;;;21.02;14.27;;;0.90;99.90;;;;;;5132075;27;20042;-68
2022/11/21 08:56:45;;;;;;;21.17;13.75;;;1.00;99.90;;;;;;5111124;27;20031;-66
2022/11/21 08:59:11;;;;;;;37.58;13.98;;;1.00;99.90;;;;;;5095250;27;20047;-67
2022/11/21 09:01:37;;;;;;;23.77;13.13;;;1.10;99.90;;;;;;5110747;27;20040;-66
2022/11/21 09:04:04;;;;;;;20.65;13.35;;;1.10;99.90;;;;;;5112274;27;20443;-67
2022/11/21 09:06:30;;;;;;;21.10;14.00;;;1.10;99.90;;;;;;5129621;27;20042;-68
2022/11/21 09:08:56;;;;;;;22.98;14.52;;;1.20;99.90;;;;;;5112425;27;20096;-67
2022/11/21 09:11:21;;;;;;;22.25;12.85;;;1.20;99.90;;;;;;5112436;27;20031;-68
2022/11/21 09:18:01;;;;;;;19.83;12.88;;;1.20;99.90;;;;;;5129209;27;20438;-66
2022/11/21 09:19:16;;;;;;;20.58;13.27;;;1.20;99.90;;;;;;5111095;27;20083;-66
2022/11/21 09:21:42;;;;;;;24.10;18.30;;;1.20;99.90;;;;;;5095348;27;20460;-67
2022/11/21 09:24:08;;;;;;;26.85;14.07;;;1.20;99.90;;;;;;5094088;27;20054;-65
2022/11/21 09:26:33;;;;;;;17.13;12.60;;;1.20;99.90;;;;;;5110837;27;20039;-65
2022/11/21 09:28:59;;;;;;;20.63;14.18;;;1.20;99.90;;;;;;5111794;27;20039;-65
2022/11/21 09:31:24;;;;;;;25.88;20.42;;;1.20;99.90;;;;;;5112184;27;20039;-64
2022/11/21 09:33:50;;;;;;;43.40;38.65;;;1.20;99.90;;;;;;5110746;27;20110;-66
2022/11/21 09:36:16;;;;;;;23.85;19.42;;;1.20;99.90;;;;;;5111940;27;20139;-66
2022/11/21 09:38:41;;;;;;;25.60;21.92;;;1.30;99.90;;;;;;5110163;27;20096;-67
2022/11/21 09:44:20;;;;;;;17.70;12.13;;;1.40;99.90;;;;;;5109762;27;20139;-67
2022/11/21 09:46:48;;;;;;;15.63;11.13;;;1.50;99.90;;;;;;5110401;27;20063;-66
2022/11/21 09:49:16;;;;;;;14.90;10.80;;;1.50;99.90;;;;;;5113301;27;20481;-67
2022/11/21 09:51:43;;;;;;;14.38;10.57;;;1.70;99.90;;;;;;5112140;27;20050;-71
2022/11/21 09:54:09;;;;;;;16.85;12.00;;;1.80;99.90;;;;;;5096006;27;20423;-66
2022/11/21 09:56:39;;;;;;;16.52;11.15;;;1.90;99.90;;;;;;5113843;27;20039;-66
2022/11/21 09:59:16;;;;;;;14.85;11.27;;;2.00;99.90;;;;;;5112775;27;20047;-68
2022/11/21 10:01:42;;;;;;;14.90;10.65;;;2.20;99.90;;;;;;5112858;27;20141;-68
2022/11/21 10:04:08;;;;;;;13.80;10.50;;;2.20;99.90;;;;;;5112746;27;20118;-68
2022/11/21 10:06:48;;;;;;;19.63;10.75;;;2.20;99.90;;;;;;5113482;27;20117;-67
2022/11/21 10:09:29;;;;;;;13.85;10.27;;;2.30;99.90;;;;;;5112716;27;20035;-68
2022/11/21 10:12:52;;;;;;;14.10;10.43;;;2.30;99.90;;;;;;5112647;28;20039;-67
2022/11/21 10:15:02;;;;;;;14.55;10.20;;;2.40;99.90;;;;;;5105373;27;20370;-67
2022/11/21 10:17:47;;;;;;;13.82;10.05;;;2.50;99.90;;;;;;5112329;28;20104;-68
2022/11/21 10:20:40;;;;;;;14.02;10.65;;;2.60;99.90;;;;;;5111700;27;20046;-68
2022/11/21 10:23:35;;;;;;;15.05;11.35;;;2.70;99.90;;;;;;5110259;28;20482;-68
2022/11/21 10:26:16;;;;;;;14.27;9.90;;;2.60;99.90;;;;;;5109316;28;20115;-67
2022/11/21 10:28:47;;;;;;;13.25;9.98;;;2.60;99.90;;;;;;5110510;28;20054;-67
2022/11/21 10:31:14;;;;;;;13.18;9.73;;;2.60;99.90;;;;;;5111962;28;20099;-67
2022/11/21 10:33:40;;;;;;;13.77;9.10;;;2.60;99.90;;;;;;5111646;27;20525;-66
2022/11/21 10:36:11;;;;;;;13.38;9.82;;;2.60;99.90;;;;;;5110518;28;20043;-68
2022/11/21 10:38:40;;;;;;;13.30;9.73;;;2.60;99.90;;;;;;5112677;27;20096;-68
2022/11/21 10:41:26;;;;;;;14.10;9.82;;;2.70;99.90;;;;;;5114708;27;20114;-67
2022/11/21 10:46:39;;;;;;;13.65;9.73;;;2.70;99.90;;;;;;5117556;27;20036;-66
2022/11/21 10:49:11;;;;;;;14.35;10.20;;;2.70;99.90;;;;;;5114848;27;20132;-66
2022/11/21 10:51:36;;;;;;;23.50;15.85;;;2.80;99.90;;;;;;5114560;27;20058;-65
2022/11/21 10:56:55;;;;;;;12.88;9.32;;;2.80;99.90;;;;;;5114389;27;20047;-68
2022/11/21 10:59:29;;;;;;;12.35;9.25;;;2.90;99.90;;;;;;5114596;27;20051;-68
2022/11/21 11:01:57;;;;;;;13.90;9.52;;;2.90;99.90;;;;;;5117202;27;20087;-69
2022/11/21 11:04:24;;;;;;;13.38;10.05;;;2.90;99.90;;;;;;5091890;27;20444;-68
2022/11/21 11:06:49;;;;;;;16.35;9.57;;;2.90;99.90;;;;;;5114759;27;20062;-66
2022/11/21 11:09:27;;;;;;;12.93;9.00;;;2.90;99.90;;;;;;5133883;27;20043;-67
2022/11/21 11:12:12;;;;;;;13.93;10.05;;;3.00;99.90;;;;;;5095928;27;20112;-67
2022/11/21 11:14:37;;;;;;;12.00;9.05;;;3.00;99.90;;;;;;5115793;27;20039;-68
2022/11/21 11:17:03;;;;;;;15.07;10.98;;;3.00;99.90;;;;;;5096669;27;20043;-66
2022/11/21 11:19:29;;;;;;;14.30;10.15;;;3.00;99.90;;;;;;5133809;27;20528;-67
2022/11/21 11:21:55;;;;;;;12.85;9.65;;;3.10;99.90;;;;;;5099362;27;20035;-67
2022/11/21 11:24:28;;;;;;;13.43;9.77;;;3.10;99.90;;;;;;5113112;27;20043;-67
2022/11/21 11:27:02;;;;;;;14.52;9.95;;;3.10;99.90;;;;;;5115223;27;20110;-67
2022/11/21 11:29:30;;;;;;;13.25;9.77;;;3.10;99.90;;;;;;5114006;27;20027;-67
2022/11/21 11:32:03;;;;;;;15.07;10.82;;;3.10;99.90;;;;;;5115200;27;20115;-65
2022/11/21 11:34:36;;;;;;;14.80;10.63;;;3.10;99.90;;;;;;5115043;27;20043;-68
2022/11/21 11:37:30;;;;;;;14.73;10.52;;;3.20;99.90;;;;;;5115500;27;20557;-68
2022/11/21 11:40:08;;;;;;;21.55;14.68;;;3.20;99.90;;;;;;5053082;28;20143;-67
2022/11/21 11:48:48;;;;;;;17.27;12.52;;;3.20;99.90;;;;;;5050193;28;20048;-67
2022/11/21 11:51:26;;;;;;;23.30;17.70;;;3.30;99.90;;;;;;5052097;28;20055;-68
2022/11/21 11:53:59;;;;;;;25.90;18.25;;;3.20;99.90;;;;;;5036630;28;20048;-68
2022/11/21 11:56:28;;;;;;;38.50;26.85;;;3.20;99.90;;;;;;5035399;28;20622;-67
2022/11/21 11:59:12;;;;;;;21.23;15.63;;;3.20;99.90;;;;;;5053500;28;20714;-67
2022/11/21 12:01:49;;;;;;;42.60;35.15;;;3.20;99.90;;;;;;5052876;28;20047;-66
2022/11/21 12:04:17;;;;;;;33.97;28.23;;;3.20;99.90;;;;;;5051577;28;20056;-68
2022/11/21 12:07:02;;;;;;;22.25;15.65;;;3.20;99.90;;;;;;5051571;28;20043;-66
2022/11/21 12:09:30;;;;;;;20.92;13.13;;;3.20;99.90;;;;;;5051953;28;20056;-66
2022/11/21 12:12:23;;;;;;;24.52;15.18;;;3.30;99.90;;;;;;5055943;28;20052;-66
2022/11/21 12:15:47;;;;;;;28.35;17.58;;;3.30;99.90;;;;;;5051758;28;20037;-66
2022/11/21 12:18:19;;;;;;;22.25;14.15;;;3.30;99.90;;;;;;5112634;27;20051;-66
2022/11/21 12:20:56;;;;;;;19.02;13.82;;;3.40;99.90;;;;;;5113821;27;20058;-66
2022/11/21 12:23:55;;;;;;;23.00;14.30;;;3.30;99.90;;;;;;5110402;27;20035;-66
2022/11/21 12:26:39;;;;;;;20.63;13.80;;;3.30;99.90;;;;;;5033738;28;20536;-66
2022/11/21 12:29:19;;;;;;;22.90;14.80;;;3.30;99.90;;;;;;5034099;28;20047;-66
2022/11/21 12:32:22;;;;;;;22.08;15.05;;;3.30;99.90;;;;;;5021636;28;20028;-66
2022/11/21 12:35:25;;;;;;;26.25;15.32;;;3.30;99.90;;;;;;5031595;28;20134;-66
2022/11/21 12:38:27;;;;;;;25.02;15.23;;;3.20;99.90;;;;;;5045110;28;20033;-66
2022/11/21 12:44:11;;;;;;;23.92;14.98;;;3.20;99.90;;;;;;5047602;28;20118;-66
2022/11/21 12:46:57;;;;;;;24.55;15.57;;;3.30;99.90;;;;;;5033730;28;20122;-65
2022/11/21 12:55:22;;;;;;;30.33;16.60;;;3.40;99.90;;;;;;5035867;28;20179;-66
2022/11/21 12:58:03;;;;;;;25.38;14.93;;;3.40;99.90;;;;;;5040036;28;20044;-66
2022/11/21 13:00:46;;;;;;;25.98;15.38;;;3.40;99.90;;;;;;5034513;28;20057;-67
2022/11/21 13:03:21;;;;;;;30.52;16.80;;;3.40;99.90;;;;;;5091162;27;20104;-66
2022/11/21 13:05:50;;;;;;;31.02;17.83;;;3.30;99.90;;;;;;5110719;27;20450;-67
2022/11/21 13:08:26;;;;;;;30.58;17.45;;;3.30;99.90;;;;;;5095323;27;20567;-66
2022/11/21 13:13:58;;;;;;;27.55;15.90;;;3.30;99.90;;;;;;5112859;27;20076;-67
2022/11/21 13:16:35;;;;;;;29.00;16.85;;;3.30;99.90;;;;;;5113489;27;20508;-66
2022/11/21 13:19:19;;;;;;;28.42;16.13;;;3.30;99.90;;;;;;5112052;27;20494;-66
2022/11/21 13:21:47;;;;;;;31.15;16.17;;;3.40;99.90;;;;;;5112582;27;20490;-67
2022/11/21 13:24:46;;;;;;;32.25;17.88;;;3.30;99.90;;;;;;5111669;27;20054;-66